Hamilton Park, Indiana
Current Conditions -  °F | °C
As of 5:34 PM on Friday 31 Oct 2014 (Local Time) from KMIE Reporting Station
Light Rain Light Rain  
Wind Chill: 34°   Ceiling: 2100
Heat Index: 41°   Visibility: 10mi
Dew Point: 36°   Wind: 13mph
Humidity: 82%   Direction: 330°NNW
Pressure: 29.95"   Gusts: NA
Location:  40.2763°N, 85.3769°W
Report Text: KMIE 312134Z 33011KT 10SM -RA SCT017 BKN021 OVC060 05/02 A2995 RMK AO2 RAB23 P0000 T00500022
Loading
Personal Weather Stations






























Interactive Weather Map
Tropical Storm Tracking
New forecast layout! Learn more

10-Day Weather Forecast

Advertisements
Track Severe Weather on mobile